sensor_id;sensor_type;location;lat;lon;timestamp;P1;durP1;ratioP1;P2;durP2;ratioP2
53253;SDS011;39148;53.332;6.922;2022-11-15T00:01:54;16.92;;;12.07;;
53253;SDS011;39148;53.332;6.922;2022-11-15T00:04:20;16.83;;;12.32;;
53253;SDS011;39148;53.332;6.922;2022-11-15T00:06:46;16.80;;;12.43;;
53253;SDS011;39148;53.332;6.922;2022-11-15T00:09:12;17.38;;;12.40;;
53253;SDS011;39148;53.332;6.922;2022-11-15T00:11:38;14.93;;;11.57;;
53253;SDS011;39148;53.332;6.922;2022-11-15T00:14:04;18.13;;;12.82;;
53253;SDS011;39148;53.332;6.922;2022-11-15T00:16:29;16.42;;;12.25;;
53253;SDS011;39148;53.332;6.922;2022-11-15T00:18:55;15.35;;;11.68;;
53253;SDS011;39148;53.332;6.922;2022-11-15T00:21:22;16.80;;;12.00;;
53253;SDS011;39148;53.332;6.922;2022-11-15T00:23:48;15.55;;;12.10;;
53253;SDS011;39148;53.332;6.922;2022-11-15T00:26:14;17.08;;;12.55;;
53253;SDS011;39148;53.332;6.922;2022-11-15T00:28:40;17.33;;;12.68;;
53253;SDS011;39148;53.332;6.922;2022-11-15T00:31:09;17.80;;;12.27;;
53253;SDS011;39148;53.332;6.922;2022-11-15T00:33:37;16.05;;;11.35;;
53253;SDS011;39148;53.332;6.922;2022-11-15T00:36:04;18.05;;;12.25;;
53253;SDS011;39148;53.332;6.922;2022-11-15T00:38:35;15.93;;;11.63;;
53253;SDS011;39148;53.332;6.922;2022-11-15T00:41:02;13.85;;;10.75;;
53253;SDS011;39148;53.332;6.922;2022-11-15T00:43:29;16.48;;;11.98;;
53253;SDS011;39148;53.332;6.922;2022-11-15T00:45:55;15.90;;;11.63;;
53253;SDS011;39148;53.332;6.922;2022-11-15T00:48:21;16.67;;;12.48;;
53253;SDS011;39148;53.332;6.922;2022-11-15T00:50:47;16.85;;;12.32;;
53253;SDS011;39148;53.332;6.922;2022-11-15T00:53:13;15.23;;;11.60;;
53253;SDS011;39148;53.332;6.922;2022-11-15T00:55:39;16.92;;;12.38;;
53253;SDS011;39148;53.332;6.922;2022-11-15T00:58:05;15.32;;;11.75;;
53253;SDS011;39148;53.332;6.922;2022-11-15T01:00:31;16.88;;;11.60;;
53253;SDS011;39148;53.332;6.922;2022-11-15T01:02:57;15.48;;;11.40;;
53253;SDS011;39148;53.332;6.922;2022-11-15T01:05:22;16.13;;;11.70;;
53253;SDS011;39148;53.332;6.922;2022-11-15T01:07:52;13.88;;;10.32;;
53253;SDS011;39148;53.332;6.922;2022-11-15T01:10:19;14.55;;;11.15;;
53253;SDS011;39148;53.332;6.922;2022-11-15T01:12:45;15.23;;;11.55;;
53253;SDS011;39148;53.332;6.922;2022-11-15T01:15:11;16.25;;;12.10;;
53253;SDS011;39148;53.332;6.922;2022-11-15T01:17:37;15.93;;;11.98;;
53253;SDS011;39148;53.332;6.922;2022-11-15T01:20:03;16.63;;;11.50;;
53253;SDS011;39148;53.332;6.922;2022-11-15T01:22:29;17.10;;;12.20;;
53253;SDS011;39148;53.332;6.922;2022-11-15T01:24:55;15.57;;;11.35;;
53253;SDS011;39148;53.332;6.922;2022-11-15T01:27:21;14.00;;;10.85;;
53253;SDS011;39148;53.332;6.922;2022-11-15T01:29:47;14.45;;;10.70;;
53253;SDS011;39148;53.332;6.922;2022-11-15T01:32:13;14.98;;;11.07;;
53253;SDS011;39148;53.332;6.922;2022-11-15T01:34:38;13.95;;;10.52;;
53253;SDS011;39148;53.332;6.922;2022-11-15T01:37:04;14.85;;;11.10;;
53253;SDS011;39148;53.332;6.922;2022-11-15T01:39:30;15.80;;;11.30;;
53253;SDS011;39148;53.332;6.922;2022-11-15T01:41:55;14.45;;;10.13;;
53253;SDS011;39148;53.332;6.922;2022-11-15T01:47:06;15.18;;;11.63;;
53253;SDS011;39148;53.332;6.922;2022-11-15T01:49:37;15.23;;;10.32;;
53253;SDS011;39148;53.332;6.922;2022-11-15T01:52:08;14.45;;;10.52;;
53253;SDS011;39148;53.332;6.922;2022-11-15T01:54:38;15.00;;;11.07;;
53253;SDS011;39148;53.332;6.922;2022-11-15T01:57:06;13.63;;;10.57;;
53253;SDS011;39148;53.332;6.922;2022-11-15T01:59:34;15.52;;;10.15;;
53253;SDS011;39148;53.332;6.922;2022-11-15T02:02:02;15.60;;;10.65;;
53253;SDS011;39148;53.332;6.922;2022-11-15T02:04:31;14.68;;;10.32;;
53253;SDS011;39148;53.332;6.922;2022-11-15T02:06:59;15.52;;;11.00;;
53253;SDS011;39148;53.332;6.922;2022-11-15T02:09:28;15.73;;;11.52;;
53253;SDS011;39148;53.332;6.922;2022-11-15T02:11:54;15.77;;;11.23;;
53253;SDS011;39148;53.332;6.922;2022-11-15T02:14:21;13.95;;;11.18;;
53253;SDS011;39148;53.332;6.922;2022-11-15T02:28:21;14.95;;;11.25;;
53253;SDS011;39148;53.332;6.922;2022-11-15T02:30:55;14.82;;;10.98;;
53253;SDS011;39148;53.332;6.922;2022-11-15T02:36:15;14.05;;;11.10;;
53253;SDS011;39148;53.332;6.922;2022-11-15T02:38:54;15.15;;;10.98;;
53253;SDS011;39148;53.332;6.922;2022-11-15T02:41:30;15.65;;;11.50;;
53253;SDS011;39148;53.332;6.922;2022-11-15T02:44:07;17.70;;;11.57;;
53253;SDS011;39148;53.332;6.922;2022-11-15T02:46:40;16.90;;;12.30;;
53253;SDS011;39148;53.332;6.922;2022-11-15T02:49:31;15.68;;;11.55;;
53253;SDS011;39148;53.332;6.922;2022-11-15T02:51:59;16.67;;;12.30;;
53253;SDS011;39148;53.332;6.922;2022-11-15T02:54:26;15.25;;;11.30;;
53253;SDS011;39148;53.332;6.922;2022-11-15T02:56:56;15.57;;;11.35;;
53253;SDS011;39148;53.332;6.922;2022-11-15T02:59:55;16.08;;;11.55;;
53253;SDS011;39148;53.332;6.922;2022-11-15T03:02:56;15.40;;;11.07;;
53253;SDS011;39148;53.332;6.922;2022-11-15T03:08:46;15.00;;;11.20;;
53253;SDS011;39148;53.332;6.922;2022-11-15T03:11:24;14.88;;;11.25;;
53253;SDS011;39148;53.332;6.922;2022-11-15T03:16:44;16.95;;;11.57;;
53253;SDS011;39148;53.332;6.922;2022-11-15T03:19:21;16.08;;;11.70;;
53253;SDS011;39148;53.332;6.922;2022-11-15T03:22:03;16.08;;;12.02;;
53253;SDS011;39148;53.332;6.922;2022-11-15T03:24:31;15.98;;;10.85;;
53253;SDS011;39148;53.332;6.922;2022-11-15T03:27:00;16.38;;;11.35;;
53253;SDS011;39148;53.332;6.922;2022-11-15T03:29:28;16.52;;;11.40;;
53253;SDS011;39148;53.332;6.922;2022-11-15T03:31:57;16.83;;;11.60;;
53253;SDS011;39148;53.332;6.922;2022-11-15T03:34:28;15.52;;;10.98;;
53253;SDS011;39148;53.332;6.922;2022-11-15T03:36:58;16.70;;;11.35;;
53253;SDS011;39148;53.332;6.922;2022-11-15T03:39:24;17.35;;;11.48;;
53253;SDS011;39148;53.332;6.922;2022-11-15T03:41:57;16.23;;;11.75;;
53253;SDS011;39148;53.332;6.922;2022-11-15T03:45:12;16.00;;;11.20;;
53253;SDS011;39148;53.332;6.922;2022-11-15T03:47:13;15.98;;;11.15;;
53253;SDS011;39148;53.332;6.922;2022-11-15T03:50:13;15.18;;;11.02;;
53253;SDS011;39148;53.332;6.922;2022-11-15T03:52:44;16.67;;;10.93;;
53253;SDS011;39148;53.332;6.922;2022-11-15T03:55:13;15.60;;;10.75;;
53253;SDS011;39148;53.332;6.922;2022-11-15T03:57:41;17.17;;;11.18;;
53253;SDS011;39148;53.332;6.922;2022-11-15T04:00:07;16.92;;;10.70;;
53253;SDS011;39148;53.332;6.922;2022-11-15T04:02:33;16.75;;;11.10;;
53253;SDS011;39148;53.332;6.922;2022-11-15T04:04:59;15.30;;;10.65;;
53253;SDS011;39148;53.332;6.922;2022-11-15T04:07:25;16.08;;;10.98;;
53253;SDS011;39148;53.332;6.922;2022-11-15T04:09:51;15.85;;;10.60;;
53253;SDS011;39148;53.332;6.922;2022-11-15T04:12:33;17.83;;;10.93;;
53253;SDS011;39148;53.332;6.922;2022-11-15T04:15:12;16.13;;;10.70;;
53253;SDS011;39148;53.332;6.922;2022-11-15T04:17:48;16.45;;;10.90;;
53253;SDS011;39148;53.332;6.922;2022-11-15T04:20:26;16.27;;;11.15;;
53253;SDS011;39148;53.332;6.922;2022-11-15T04:23:18;14.77;;;10.20;;
53253;SDS011;39148;53.332;6.922;2022-11-15T04:26:14;16.88;;;10.52;;
53253;SDS011;39148;53.332;6.922;2022-11-15T04:28:42;15.45;;;10.02;;
53253;SDS011;39148;53.332;6.922;2022-11-15T04:31:27;15.32;;;10.20;;
53253;SDS011;39148;53.332;6.922;2022-11-15T04:33:53;14.90;;;9.35;;
53253;SDS011;39148;53.332;6.922;2022-11-15T04:36:20;14.93;;;10.75;;
53253;SDS011;39148;53.332;6.922;2022-11-15T04:39:04;15.02;;;9.82;;
53253;SDS011;39148;53.332;6.922;2022-11-15T04:41:30;14.90;;;9.85;;
53253;SDS011;39148;53.332;6.922;2022-11-15T04:43:56;21.00;;;10.15;;
53253;SDS011;39148;53.332;6.922;2022-11-15T04:46:22;15.98;;;10.63;;
53253;SDS011;39148;53.332;6.922;2022-11-15T04:48:49;15.20;;;9.38;;
53253;SDS011;39148;53.332;6.922;2022-11-15T04:51:15;16.63;;;10.70;;
53253;SDS011;39148;53.332;6.922;2022-11-15T04:53:41;15.95;;;10.70;;
53253;SDS011;39148;53.332;6.922;2022-11-15T04:56:07;15.43;;;10.77;;
53253;SDS011;39148;53.332;6.922;2022-11-15T04:58:33;14.82;;;10.18;;
53253;SDS011;39148;53.332;6.922;2022-11-15T05:01:09;16.30;;;10.38;;
53253;SDS011;39148;53.332;6.922;2022-11-15T05:03:35;18.13;;;10.40;;
53253;SDS011;39148;53.332;6.922;2022-11-15T05:06:20;18.30;;;11.05;;
53253;SDS011;39148;53.332;6.922;2022-11-15T05:08:46;16.27;;;9.82;;
53253;SDS011;39148;53.332;6.922;2022-11-15T05:11:12;15.98;;;10.05;;
53253;SDS011;39148;53.332;6.922;2022-11-15T05:13:37;16.73;;;10.38;;
53253;SDS011;39148;53.332;6.922;2022-11-15T05:16:03;16.70;;;10.13;;
53253;SDS011;39148;53.332;6.922;2022-11-15T05:18:29;16.45;;;10.20;;
53253;SDS011;39148;53.332;6.922;2022-11-15T05:20:55;15.57;;;10.02;;
53253;SDS011;39148;53.332;6.922;2022-11-15T05:23:21;16.13;;;10.07;;
53253;SDS011;39148;53.332;6.922;2022-11-15T05:25:46;17.67;;;9.65;;
53253;SDS011;39148;53.332;6.922;2022-11-15T05:28:12;16.00;;;9.48;;
53253;SDS011;39148;53.332;6.922;2022-11-15T05:30:38;15.70;;;9.60;;
53253;SDS011;39148;53.332;6.922;2022-11-15T05:33:04;16.88;;;10.43;;
53253;SDS011;39148;53.332;6.922;2022-11-15T05:35:31;14.65;;;9.77;;
53253;SDS011;39148;53.332;6.922;2022-11-15T05:38:04;15.63;;;9.82;;
53253;SDS011;39148;53.332;6.922;2022-11-15T05:40:30;18.30;;;10.20;;
53253;SDS011;39148;53.332;6.922;2022-11-15T05:42:57;17.23;;;10.35;;
53253;SDS011;39148;53.332;6.922;2022-11-15T05:45:27;16.38;;;10.07;;
53253;SDS011;39148;53.332;6.922;2022-11-15T05:47:53;17.35;;;9.95;;
53253;SDS011;39148;53.332;6.922;2022-11-15T05:50:22;16.23;;;10.20;;
53253;SDS011;39148;53.332;6.922;2022-11-15T05:52:48;20.17;;;10.63;;
53253;SDS011;39148;53.332;6.922;2022-11-15T05:55:14;17.73;;;10.80;;
53253;SDS011;39148;53.332;6.922;2022-11-15T05:57:40;17.75;;;10.70;;
53253;SDS011;39148;53.332;6.922;2022-11-15T06:00:07;17.35;;;10.38;;
53253;SDS011;39148;53.332;6.922;2022-11-15T06:02:34;16.20;;;9.63;;
53253;SDS011;39148;53.332;6.922;2022-11-15T06:05:00;16.80;;;10.25;;
53253;SDS011;39148;53.332;6.922;2022-11-15T06:07:25;17.50;;;10.68;;
53253;SDS011;39148;53.332;6.922;2022-11-15T06:09:51;17.83;;;10.23;;
53253;SDS011;39148;53.332;6.922;2022-11-15T06:12:17;17.05;;;10.65;;
53253;SDS011;39148;53.332;6.922;2022-11-15T06:14:43;18.98;;;10.65;;
53253;SDS011;39148;53.332;6.922;2022-11-15T06:17:09;17.90;;;10.82;;
53253;SDS011;39148;53.332;6.922;2022-11-15T06:19:35;17.90;;;10.80;;
53253;SDS011;39148;53.332;6.922;2022-11-15T06:22:00;20.23;;;10.73;;
53253;SDS011;39148;53.332;6.922;2022-11-15T06:24:26;20.90;;;11.25;;
53253;SDS011;39148;53.332;6.922;2022-11-15T06:26:52;18.02;;;11.00;;
53253;SDS011;39148;53.332;6.922;2022-11-15T06:29:18;19.55;;;11.63;;
53253;SDS011;39148;53.332;6.922;2022-11-15T06:31:44;18.75;;;11.35;;
53253;SDS011;39148;53.332;6.922;2022-11-15T06:34:10;19.50;;;12.10;;
53253;SDS011;39148;53.332;6.922;2022-11-15T06:36:36;18.98;;;11.57;;
53253;SDS011;39148;53.332;6.922;2022-11-15T06:39:05;19.67;;;11.50;;
53253;SDS011;39148;53.332;6.922;2022-11-15T06:41:33;17.30;;;11.18;;
53253;SDS011;39148;53.332;6.922;2022-11-15T06:44:00;19.52;;;10.98;;
53253;SDS011;39148;53.332;6.922;2022-11-15T06:46:26;16.55;;;11.20;;
53253;SDS011;39148;53.332;6.922;2022-11-15T06:48:52;21.55;;;12.23;;
53253;SDS011;39148;53.332;6.922;2022-11-15T06:51:18;17.50;;;10.38;;
53253;SDS011;39148;53.332;6.922;2022-11-15T06:53:44;15.10;;;10.88;;
53253;SDS011;39148;53.332;6.922;2022-11-15T06:56:10;21.58;;;11.68;;
53253;SDS011;39148;53.332;6.922;2022-11-15T06:58:36;19.10;;;11.18;;
53253;SDS011;39148;53.332;6.922;2022-11-15T07:01:03;20.02;;;12.55;;
53253;SDS011;39148;53.332;6.922;2022-11-15T07:03:31;19.58;;;11.30;;
53253;SDS011;39148;53.332;6.922;2022-11-15T07:05:57;20.98;;;12.93;;
53253;SDS011;39148;53.332;6.922;2022-11-15T07:08:23;19.10;;;12.02;;
53253;SDS011;39148;53.332;6.922;2022-11-15T07:10:51;19.75;;;11.85;;
53253;SDS011;39148;53.332;6.922;2022-11-15T07:13:17;19.50;;;11.05;;
53253;SDS011;39148;53.332;6.922;2022-11-15T07:15:43;24.38;;;12.57;;
53253;SDS011;39148;53.332;6.922;2022-11-15T07:18:09;21.00;;;12.45;;
53253;SDS011;39148;53.332;6.922;2022-11-15T07:20:35;20.85;;;12.13;;
53253;SDS011;39148;53.332;6.922;2022-11-15T07:23:01;20.73;;;11.77;;
53253;SDS011;39148;53.332;6.922;2022-11-15T07:25:28;20.48;;;12.07;;
53253;SDS011;39148;53.332;6.922;2022-11-15T07:27:55;17.00;;;11.40;;
53253;SDS011;39148;53.332;6.922;2022-11-15T07:30:24;17.92;;;11.07;;
53253;SDS011;39148;53.332;6.922;2022-11-15T07:32:54;18.92;;;11.82;;
53253;SDS011;39148;53.332;6.922;2022-11-15T07:35:21;18.65;;;11.57;;
53253;SDS011;39148;53.332;6.922;2022-11-15T07:37:54;18.35;;;11.68;;
53253;SDS011;39148;53.332;6.922;2022-11-15T07:40:27;18.27;;;11.70;;
53253;SDS011;39148;53.332;6.922;2022-11-15T07:43:04;19.17;;;11.60;;
53253;SDS011;39148;53.332;6.922;2022-11-15T07:45:31;21.02;;;11.40;;
53253;SDS011;39148;53.332;6.922;2022-11-15T07:48:00;19.42;;;11.57;;
53253;SDS011;39148;53.332;6.922;2022-11-15T07:50:26;16.27;;;11.05;;
53253;SDS011;39148;53.332;6.922;2022-11-15T07:52:58;17.50;;;11.13;;
53253;SDS011;39148;53.332;6.922;2022-11-15T07:55:25;20.20;;;11.85;;
53253;SDS011;39148;53.332;6.922;2022-11-15T07:57:52;16.38;;;11.43;;
53253;SDS011;39148;53.332;6.922;2022-11-15T08:00:18;17.30;;;10.75;;
53253;SDS011;39148;53.332;6.922;2022-11-15T08:02:44;18.00;;;11.05;;
53253;SDS011;39148;53.332;6.922;2022-11-15T08:05:11;17.38;;;11.43;;
53253;SDS011;39148;53.332;6.922;2022-11-15T08:07:36;16.88;;;11.32;;
53253;SDS011;39148;53.332;6.922;2022-11-15T08:10:03;16.17;;;10.95;;
53253;SDS011;39148;53.332;6.922;2022-11-15T08:12:31;17.08;;;10.40;;
53253;SDS011;39148;53.332;6.922;2022-11-15T08:14:57;15.57;;;9.80;;
53253;SDS011;39148;53.332;6.922;2022-11-15T08:17:23;19.10;;;11.10;;
53253;SDS011;39148;53.332;6.922;2022-11-15T08:19:49;16.42;;;10.32;;
53253;SDS011;39148;53.332;6.922;2022-11-15T08:22:15;16.67;;;10.88;;
53253;SDS011;39148;53.332;6.922;2022-11-15T08:24:41;15.70;;;10.23;;
53253;SDS011;39148;53.332;6.922;2022-11-15T08:27:07;18.58;;;10.95;;
53253;SDS011;39148;53.332;6.922;2022-11-15T08:29:42;15.13;;;9.75;;
53253;SDS011;39148;53.332;6.922;2022-11-15T08:32:09;14.85;;;10.15;;
53253;SDS011;39148;53.332;6.922;2022-11-15T08:34:36;15.30;;;10.07;;
53253;SDS011;39148;53.332;6.922;2022-11-15T08:37:02;17.67;;;10.82;;
53253;SDS011;39148;53.332;6.922;2022-11-15T08:39:28;15.77;;;10.20;;
53253;SDS011;39148;53.332;6.922;2022-11-15T08:41:54;15.48;;;10.30;;
53253;SDS011;39148;53.332;6.922;2022-11-15T08:44:20;15.60;;;9.95;;
53253;SDS011;39148;53.332;6.922;2022-11-15T08:46:45;15.90;;;9.73;;
53253;SDS011;39148;53.332;6.922;2022-11-15T08:49:11;15.80;;;9.73;;
53253;SDS011;39148;53.332;6.922;2022-11-15T08:51:38;14.25;;;10.05;;
53253;SDS011;39148;53.332;6.922;2022-11-15T08:54:04;16.75;;;10.48;;
53253;SDS011;39148;53.332;6.922;2022-11-15T08:56:30;14.05;;;9.32;;
53253;SDS011;39148;53.332;6.922;2022-11-15T08:58:55;17.80;;;10.35;;
53253;SDS011;39148;53.332;6.922;2022-11-15T09:01:22;14.40;;;9.77;;
53253;SDS011;39148;53.332;6.922;2022-11-15T09:03:48;13.75;;;9.40;;
53253;SDS011;39148;53.332;6.922;2022-11-15T09:06:14;14.38;;;9.25;;
53253;SDS011;39148;53.332;6.922;2022-11-15T09:08:40;13.70;;;9.45;;
53253;SDS011;39148;53.332;6.922;2022-11-15T09:11:07;14.23;;;9.93;;
53253;SDS011;39148;53.332;6.922;2022-11-15T09:13:34;14.40;;;9.32;;
53253;SDS011;39148;53.332;6.922;2022-11-15T09:16:02;15.02;;;9.50;;
53253;SDS011;39148;53.332;6.922;2022-11-15T09:18:29;13.50;;;9.48;;
53253;SDS011;39148;53.332;6.922;2022-11-15T09:20:55;15.65;;;9.85;;
53253;SDS011;39148;53.332;6.922;2022-11-15T09:23:22;12.65;;;9.52;;
53253;SDS011;39148;53.332;6.922;2022-11-15T09:25:48;13.10;;;9.13;;
53253;SDS011;39148;53.332;6.922;2022-11-15T09:28:14;13.10;;;9.23;;
53253;SDS011;39148;53.332;6.922;2022-11-15T09:30:40;11.90;;;8.35;;
53253;SDS011;39148;53.332;6.922;2022-11-15T09:33:07;13.77;;;8.98;;
53253;SDS011;39148;53.332;6.922;2022-11-15T09:35:36;12.27;;;8.68;;
53253;SDS011;39148;53.332;6.922;2022-11-15T09:38:02;12.88;;;8.80;;
53253;SDS011;39148;53.332;6.922;2022-11-15T09:40:29;12.07;;;9.02;;
53253;SDS011;39148;53.332;6.922;2022-11-15T09:43:05;12.77;;;8.30;;
53253;SDS011;39148;53.332;6.922;2022-11-15T09:51:03;14.70;;;9.00;;
53253;SDS011;39148;53.332;6.922;2022-11-15T09:53:41;12.35;;;8.32;;
53253;SDS011;39148;53.332;6.922;2022-11-15T09:56:15;12.43;;;8.63;;
53253;SDS011;39148;53.332;6.922;2022-11-15T10:04:15;11.48;;;7.82;;
53253;SDS011;39148;53.332;6.922;2022-11-15T10:06:46;11.75;;;8.50;;
53253;SDS011;39148;53.332;6.922;2022-11-15T10:11:44;11.70;;;8.13;;
53253;SDS011;39148;53.332;6.922;2022-11-15T10:14:14;12.20;;;8.48;;
53253;SDS011;39148;53.332;6.922;2022-11-15T10:20:00;13.07;;;8.65;;
53253;SDS011;39148;53.332;6.922;2022-11-15T10:22:33;11.48;;;8.07;;
53253;SDS011;39148;53.332;6.922;2022-11-15T10:27:34;13.27;;;8.55;;
53253;SDS011;39148;53.332;6.922;2022-11-15T10:30:00;12.60;;;8.05;;
53253;SDS011;39148;53.332;6.922;2022-11-15T10:32:28;11.05;;;7.97;;
53253;SDS011;39148;53.332;6.922;2022-11-15T10:34:55;11.13;;;7.47;;
53253;SDS011;39148;53.332;6.922;2022-11-15T10:37:28;11.00;;;8.15;;
53253;SDS011;39148;53.332;6.922;2022-11-15T10:40:05;10.73;;;8.18;;
53253;SDS011;39148;53.332;6.922;2022-11-15T10:42:39;10.63;;;7.75;;
53253;SDS011;39148;53.332;6.922;2022-11-15T10:45:22;12.90;;;8.45;;
53253;SDS011;39148;53.332;6.922;2022-11-15T10:47:48;10.18;;;7.78;;
53253;SDS011;39148;53.332;6.922;2022-11-15T10:52:56;11.75;;;8.60;;
53253;SDS011;39148;53.332;6.922;2022-11-15T10:55:27;11.43;;;8.20;;
53253;SDS011;39148;53.332;6.922;2022-11-15T10:58:06;12.43;;;8.73;;
53253;SDS011;39148;53.332;6.922;2022-11-15T11:00:45;10.93;;;8.13;;
53253;SDS011;39148;53.332;6.922;2022-11-15T11:03:27;10.98;;;7.82;;
53253;SDS011;39148;53.332;6.922;2022-11-15T11:06:08;12.23;;;8.70;;
53253;SDS011;39148;53.332;6.922;2022-11-15T11:11:24;10.23;;;7.70;;
53253;SDS011;39148;53.332;6.922;2022-11-15T11:13:50;11.18;;;7.68;;
53253;SDS011;39148;53.332;6.922;2022-11-15T11:21:37;11.75;;;8.55;;
53253;SDS011;39148;53.332;6.922;2022-11-15T11:38:39;11.30;;;8.45;;
53253;SDS011;39148;53.332;6.922;2022-11-15T11:47:17;9.77;;;7.78;;
53253;SDS011;39148;53.332;6.922;2022-11-15T11:49:46;10.57;;;7.70;;
53253;SDS011;39148;53.332;6.922;2022-11-15T11:54:51;9.75;;;7.15;;
53253;SDS011;39148;53.332;6.922;2022-11-15T12:00:20;9.90;;;7.10;;
53253;SDS011;39148;53.332;6.922;2022-11-15T12:05:57;8.52;;;6.82;;
53253;SDS011;39148;53.332;6.922;2022-11-15T12:11:07;9.15;;;6.38;;
53253;SDS011;39148;53.332;6.922;2022-11-15T12:13:37;9.50;;;7.47;;
53253;SDS011;39148;53.332;6.922;2022-11-15T12:18:46;8.68;;;7.15;;
53253;SDS011;39148;53.332;6.922;2022-11-15T12:23:48;9.23;;;7.30;;
53253;SDS011;39148;53.332;6.922;2022-11-15T12:26:20;9.95;;;6.93;;
53253;SDS011;39148;53.332;6.922;2022-11-15T12:28:54;9.82;;;6.93;;
53253;SDS011;39148;53.332;6.922;2022-11-15T12:31:30;8.45;;;6.85;;
53253;SDS011;39148;53.332;6.922;2022-11-15T12:34:04;9.23;;;6.60;;
53253;SDS011;39148;53.332;6.922;2022-11-15T12:36:43;8.68;;;6.82;;
53253;SDS011;39148;53.332;6.922;2022-11-15T12:39:10;8.35;;;6.20;;
53253;SDS011;39148;53.332;6.922;2022-11-15T12:44:12;8.50;;;6.97;;
53253;SDS011;39148;53.332;6.922;2022-11-15T12:47:03;9.55;;;6.82;;
53253;SDS011;39148;53.332;6.922;2022-11-15T12:49:47;10.82;;;6.88;;
53253;SDS011;39148;53.332;6.922;2022-11-15T12:52:14;7.97;;;6.72;;
53253;SDS011;39148;53.332;6.922;2022-11-15T13:02:29;9.20;;;6.45;;
53253;SDS011;39148;53.332;6.922;2022-11-15T13:17:39;8.10;;;5.90;;
53253;SDS011;39148;53.332;6.922;2022-11-15T13:22:43;7.35;;;5.70;;
53253;SDS011;39148;53.332;6.922;2022-11-15T13:28:29;7.38;;;5.40;;
53253;SDS011;39148;53.332;6.922;2022-11-15T13:33:53;7.28;;;5.20;;
53253;SDS011;39148;53.332;6.922;2022-11-15T13:36:29;7.18;;;4.97;;
53253;SDS011;39148;53.332;6.922;2022-11-15T13:38:59;10.43;;;5.30;;
53253;SDS011;39148;53.332;6.922;2022-11-15T13:41:59;7.50;;;5.00;;
53253;SDS011;39148;53.332;6.922;2022-11-15T13:47:14;7.13;;;4.63;;
53253;SDS011;39148;53.332;6.922;2022-11-15T13:49:43;6.82;;;4.85;;
53253;SDS011;39148;53.332;6.922;2022-11-15T13:52:10;7.25;;;4.80;;
53253;SDS011;39148;53.332;6.922;2022-11-15T13:59:37;6.90;;;4.28;;
53253;SDS011;39148;53.332;6.922;2022-11-15T14:02:11;6.63;;;4.18;;
53253;SDS011;39148;53.332;6.922;2022-11-15T14:04:49;5.85;;;4.38;;
53253;SDS011;39148;53.332;6.922;2022-11-15T14:07:38;7.13;;;4.30;;
53253;SDS011;39148;53.332;6.922;2022-11-15T14:12:54;6.13;;;4.03;;
53253;SDS011;39148;53.332;6.922;2022-11-15T14:17:59;6.75;;;3.78;;
53253;SDS011;39148;53.332;6.922;2022-11-15T14:22:55;6.63;;;3.83;;
53253;SDS011;39148;53.332;6.922;2022-11-15T14:30:48;6.28;;;3.75;;
53253;SDS011;39148;53.332;6.922;2022-11-15T14:36:03;5.80;;;3.80;;
53253;SDS011;39148;53.332;6.922;2022-11-15T14:38:29;5.10;;;3.10;;
53253;SDS011;39148;53.332;6.922;2022-11-15T14:40:55;5.45;;;3.53;;
53253;SDS011;39148;53.332;6.922;2022-11-15T14:43:21;5.28;;;3.45;;
53253;SDS011;39148;53.332;6.922;2022-11-15T14:45:47;4.82;;;3.28;;
53253;SDS011;39148;53.332;6.922;2022-11-15T14:48:13;5.75;;;3.60;;
53253;SDS011;39148;53.332;6.922;2022-11-15T14:50:39;6.28;;;3.63;;
53253;SDS011;39148;53.332;6.922;2022-11-15T14:53:05;6.43;;;3.17;;
53253;SDS011;39148;53.332;6.922;2022-11-15T14:55:32;5.45;;;3.30;;
53253;SDS011;39148;53.332;6.922;2022-11-15T14:58:04;4.57;;;2.92;;
53253;SDS011;39148;53.332;6.922;2022-11-15T15:00:33;5.72;;;2.78;;
53253;SDS011;39148;53.332;6.922;2022-11-15T15:02:59;5.32;;;3.17;;
53253;SDS011;39148;53.332;6.922;2022-11-15T15:05:30;4.97;;;3.08;;
53253;SDS011;39148;53.332;6.922;2022-11-15T15:07:56;4.63;;;2.80;;
53253;SDS011;39148;53.332;6.922;2022-11-15T15:10:22;5.80;;;2.90;;
53253;SDS011;39148;53.332;6.922;2022-11-15T15:12:49;6.00;;;3.05;;
53253;SDS011;39148;53.332;6.922;2022-11-15T15:15:16;4.65;;;2.65;;
53253;SDS011;39148;53.332;6.922;2022-11-15T15:17:48;4.40;;;2.53;;
53253;SDS011;39148;53.332;6.922;2022-11-15T15:20:14;4.57;;;2.50;;
53253;SDS011;39148;53.332;6.922;2022-11-15T15:22:40;4.72;;;2.83;;
53253;SDS011;39148;53.332;6.922;2022-11-15T15:27:48;4.90;;;2.53;;
53253;SDS011;39148;53.332;6.922;2022-11-15T15:30:14;6.18;;;2.70;;
53253;SDS011;39148;53.332;6.922;2022-11-15T15:32:40;4.63;;;2.67;;
53253;SDS011;39148;53.332;6.922;2022-11-15T15:35:07;4.90;;;2.72;;
53253;SDS011;39148;53.332;6.922;2022-11-15T15:37:36;3.50;;;2.22;;
53253;SDS011;39148;53.332;6.922;2022-11-15T15:40:02;4.70;;;2.22;;
53253;SDS011;39148;53.332;6.922;2022-11-15T15:42:28;4.88;;;2.60;;
53253;SDS011;39148;53.332;6.922;2022-11-15T15:44:54;3.72;;;2.10;;
53253;SDS011;39148;53.332;6.922;2022-11-15T15:47:21;4.40;;;2.40;;
53253;SDS011;39148;53.332;6.922;2022-11-15T15:49:48;4.65;;;2.45;;
53253;SDS011;39148;53.332;6.922;2022-11-15T15:52:14;4.65;;;2.50;;
53253;SDS011;39148;53.332;6.922;2022-11-15T15:54:41;3.63;;;2.13;;
53253;SDS011;39148;53.332;6.922;2022-11-15T15:57:07;3.95;;;2.55;;
53253;SDS011;39148;53.332;6.922;2022-11-15T15:59:35;4.28;;;2.25;;
53253;SDS011;39148;53.332;6.922;2022-11-15T16:02:01;3.60;;;2.17;;
53253;SDS011;39148;53.332;6.922;2022-11-15T16:04:27;3.42;;;1.98;;
53253;SDS011;39148;53.332;6.922;2022-11-15T16:06:57;3.80;;;2.08;;
53253;SDS011;39148;53.332;6.922;2022-11-15T16:09:24;4.10;;;2.30;;
53253;SDS011;39148;53.332;6.922;2022-11-15T16:12:08;5.43;;;2.13;;
53253;SDS011;39148;53.332;6.922;2022-11-15T16:14:35;4.18;;;2.13;;
53253;SDS011;39148;53.332;6.922;2022-11-15T16:17:01;3.70;;;2.05;;
53253;SDS011;39148;53.332;6.922;2022-11-15T16:19:27;4.35;;;2.25;;
53253;SDS011;39148;53.332;6.922;2022-11-15T16:21:52;4.38;;;2.15;;
53253;SDS011;39148;53.332;6.922;2022-11-15T16:24:19;3.63;;;1.90;;
53253;SDS011;39148;53.332;6.922;2022-11-15T16:26:45;3.47;;;1.95;;
53253;SDS011;39148;53.332;6.922;2022-11-15T16:29:12;4.22;;;2.08;;
53253;SDS011;39148;53.332;6.922;2022-11-15T16:31:38;3.90;;;2.08;;
53253;SDS011;39148;53.332;6.922;2022-11-15T16:34:04;4.40;;;2.15;;
53253;SDS011;39148;53.332;6.922;2022-11-15T16:36:31;3.97;;;2.03;;
53253;SDS011;39148;53.332;6.922;2022-11-15T16:38:58;3.67;;;1.90;;
53253;SDS011;39148;53.332;6.922;2022-11-15T16:41:24;3.72;;;2.42;;
53253;SDS011;39148;53.332;6.922;2022-11-15T16:43:51;3.47;;;1.92;;
53253;SDS011;39148;53.332;6.922;2022-11-15T16:48:44;4.40;;;2.15;;
53253;SDS011;39148;53.332;6.922;2022-11-15T16:51:09;3.92;;;1.73;;
53253;SDS011;39148;53.332;6.922;2022-11-15T16:53:36;3.25;;;1.63;;
53253;SDS011;39148;53.332;6.922;2022-11-15T16:56:01;3.55;;;1.85;;
53253;SDS011;39148;53.332;6.922;2022-11-15T16:58:28;3.75;;;2.03;;
53253;SDS011;39148;53.332;6.922;2022-11-15T17:00:54;3.17;;;1.77;;
53253;SDS011;39148;53.332;6.922;2022-11-15T17:03:21;4.05;;;1.77;;
53253;SDS011;39148;53.332;6.922;2022-11-15T17:05:48;3.38;;;1.83;;
53253;SDS011;39148;53.332;6.922;2022-11-15T17:08:14;3.53;;;1.88;;
53253;SDS011;39148;53.332;6.922;2022-11-15T17:10:40;3.10;;;1.60;;
53253;SDS011;39148;53.332;6.922;2022-11-15T17:13:07;4.07;;;1.77;;